Time;durP1;ratioP1;P1;durP2;ratioP2;P2;SDS_P1;SDS_P2;PMS_P1;PMS_P2;Temp;Humidity;BMP_temperature;BMP_pressure;BME280_temperature;BME280_humidity;BME280_pressure;Samples;Min_cycle;Max_cycle;Signal;HPM_P1;HPM_P2
2023/03/11 00:00:55;;;;;;;3.72;2.58;;;2.70;99.90;;;;;;5099017;28;20454;-66
2023/03/11 00:03:23;;;;;;;3.75;2.47;;;2.70;99.90;;;;;;5097401;28;20036;-68
2023/03/11 00:05:52;;;;;;;3.20;2.30;;;2.60;99.90;;;;;;5099158;28;20043;-66
2023/03/11 00:08:22;;;;;;;3.78;2.50;;;2.60;99.90;;;;;;5090187;28;20050;-65
2023/03/11 00:10:59;;;;;;;3.78;2.72;;;2.60;99.90;;;;;;5109671;28;20111;-70
2023/03/11 00:13:28;;;;;;;3.72;2.58;;;2.60;99.90;;;;;;5093925;28;20044;-67
2023/03/11 00:15:56;;;;;;;5.88;2.80;;;2.60;99.90;;;;;;5089484;28;20044;-66
2023/03/11 00:18:25;;;;;;;3.67;2.70;;;2.50;99.90;;;;;;5090576;28;20041;-67
2023/03/11 00:20:55;;;;;;;4.95;3.03;;;2.50;99.90;;;;;;5091056;28;20072;-66
2023/03/11 00:23:24;;;;;;;3.97;2.70;;;2.50;99.90;;;;;;5096001;28;20043;-67
2023/03/11 00:25:51;;;;;;;3.60;2.60;;;2.40;99.90;;;;;;5095753;28;20139;-66
2023/03/11 00:28:21;;;;;;;3.60;2.40;;;2.40;99.90;;;;;;5105685;28;20047;-66
2023/03/11 00:30:48;;;;;;;3.65;2.60;;;2.40;99.90;;;;;;5105212;28;20126;-66
2023/03/11 00:33:15;;;;;;;3.40;2.30;;;2.40;99.90;;;;;;5094641;28;20390;-66
2023/03/11 00:35:43;;;;;;;3.13;2.40;;;2.40;99.90;;;;;;5094209;28;20445;-66
2023/03/11 00:38:14;;;;;;;2.80;2.30;;;2.40;99.90;;;;;;5106091;28;20123;-66
2023/03/11 00:40:46;;;;;;;3.05;2.25;;;2.30;99.90;;;;;;5093794;28;20120;-66
2023/03/11 00:43:13;;;;;;;3.25;2.25;;;2.30;99.90;;;;;;5101492;28;20035;-65
2023/03/11 00:45:41;;;;;;;3.15;2.45;;;2.30;99.90;;;;;;5114112;28;20345;-65
2023/03/11 00:48:10;;;;;;;3.00;2.45;;;2.30;99.90;;;;;;5096033;28;20064;-65
2023/03/11 00:50:37;;;;;;;2.67;2.25;;;2.30;99.90;;;;;;5093918;28;20498;-66
2023/03/11 00:53:05;;;;;;;3.15;2.40;;;2.30;99.90;;;;;;5093640;28;20454;-65
2023/03/11 00:55:34;;;;;;;3.65;2.42;;;2.30;99.90;;;;;;5093989;28;20452;-66
2023/03/11 00:58:06;;;;;;;3.28;2.42;;;2.30;99.90;;;;;;5097149;28;20390;-66
2023/03/11 01:00:53;;;;;;;3.80;2.50;;;2.30;99.90;;;;;;5098459;28;20056;-63
2023/03/11 01:03:21;;;;;;;3.92;2.80;;;2.20;99.90;;;;;;5092354;28;20375;-66
2023/03/11 01:05:48;;;;;;;3.28;2.40;;;2.20;99.90;;;;;;5092477;28;20532;-66
2023/03/11 01:08:16;;;;;;;3.13;2.42;;;2.20;99.90;;;;;;5091950;28;20055;-65
2023/03/11 01:10:43;;;;;;;2.90;2.33;;;2.20;99.90;;;;;;5093371;28;20056;-66
2023/03/11 01:13:11;;;;;;;4.10;2.40;;;2.20;99.90;;;;;;5093605;28;20073;-65
2023/03/11 01:15:38;;;;;;;3.38;2.20;;;2.10;99.90;;;;;;5093485;28;20478;-66
2023/03/11 01:18:06;;;;;;;2.83;2.35;;;2.10;99.90;;;;;;5096589;28;20047;-65
2023/03/11 01:20:35;;;;;;;2.72;2.20;;;2.10;99.90;;;;;;5094867;28;20054;-64
2023/03/11 01:23:03;;;;;;;2.90;2.25;;;2.00;99.90;;;;;;5098472;28;20127;-67
2023/03/11 01:25:30;;;;;;;2.55;2.10;;;2.00;99.90;;;;;;5091920;28;20047;-65
2023/03/11 01:27:58;;;;;;;3.45;2.50;;;1.90;99.90;;;;;;5095727;28;20071;-66
2023/03/11 01:30:27;;;;;;;3.40;2.60;;;1.90;99.90;;;;;;5092614;28;20473;-65
2023/03/11 01:32:56;;;;;;;3.65;2.40;;;1.80;99.90;;;;;;5091631;28;20131;-66
2023/03/11 01:35:26;;;;;;;4.03;2.55;;;1.80;99.90;;;;;;5091911;28;20421;-68
2023/03/11 01:37:54;;;;;;;4.00;2.25;;;1.80;99.90;;;;;;5092825;28;20044;-65
2023/03/11 01:40:32;;;;;;;2.72;2.20;;;1.70;99.90;;;;;;5106123;28;20036;-66
2023/03/11 01:43:06;;;;;;;2.53;2.05;;;1.80;99.90;;;;;;5090830;28;20495;-66
2023/03/11 01:45:49;;;;;;;2.72;2.00;;;1.80;99.90;;;;;;5075412;28;20055;-65
2023/03/11 01:48:19;;;;;;;3.13;2.30;;;1.70;99.90;;;;;;5090875;28;20517;-64
2023/03/11 01:50:49;;;;;;;2.80;2.22;;;1.80;99.90;;;;;;5091029;28;20048;-64
2023/03/11 01:53:17;;;;;;;3.15;2.28;;;1.70;99.90;;;;;;5089655;28;20121;-67
2023/03/11 01:55:46;;;;;;;4.70;3.03;;;1.70;99.90;;;;;;5089377;28;20032;-66
2023/03/11 01:58:19;;;;;;;3.72;2.50;;;1.70;99.90;;;;;;5090630;28;20047;-65
2023/03/11 02:00:46;;;;;;;3.13;2.53;;;1.70;99.90;;;;;;5090030;28;20046;-64
2023/03/11 02:03:22;;;;;;;5.30;2.58;;;1.70;99.90;;;;;;5090938;28;20468;-64
2023/03/11 02:05:52;;;;;;;3.55;2.50;;;1.70;99.90;;;;;;5073039;28;20134;-65
2023/03/11 02:08:20;;;;;;;4.78;2.50;;;1.70;99.90;;;;;;5092514;28;20048;-64
2023/03/11 02:10:49;;;;;;;3.45;2.50;;;1.70;99.90;;;;;;5090872;28;20048;-65
2023/03/11 02:13:17;;;;;;;3.08;2.30;;;1.70;99.90;;;;;;5074065;28;20051;-63
2023/03/11 02:15:44;;;;;;;3.50;2.45;;;1.60;99.90;;;;;;5089517;28;20040;-64
2023/03/11 02:18:13;;;;;;;3.00;2.42;;;1.60;99.90;;;;;;5091276;28;20042;-66
2023/03/11 02:20:51;;;;;;;4.03;2.60;;;1.60;99.90;;;;;;5090971;28;20406;-65
2023/03/11 02:23:23;;;;;;;3.47;2.65;;;1.60;99.90;;;;;;5110025;28;20043;-66
2023/03/11 02:26:03;;;;;;;3.17;2.38;;;1.60;99.90;;;;;;5099273;28;20510;-66
2023/03/11 02:28:32;;;;;;;4.38;2.70;;;1.60;99.90;;;;;;5092920;28;20071;-65
2023/03/11 02:31:00;;;;;;;3.42;2.33;;;1.60;99.90;;;;;;5107338;28;20046;-65
2023/03/11 02:33:31;;;;;;;4.82;2.60;;;1.50;99.90;;;;;;5090808;28;20459;-65
2023/03/11 02:35:58;;;;;;;3.80;2.92;;;1.50;99.90;;;;;;5072618;28;20127;-65
2023/03/11 02:38:26;;;;;;;2.83;2.30;;;1.60;99.90;;;;;;5097901;28;20060;-65
2023/03/11 02:40:59;;;;;;;3.05;2.35;;;1.50;99.90;;;;;;5089901;28;20500;-65
2023/03/11 02:43:47;;;;;;;3.33;2.00;;;1.50;99.90;;;;;;5088001;28;20059;-65
2023/03/11 02:46:17;;;;;;;4.07;2.60;;;1.50;99.90;;;;;;5089831;28;20062;-65
2023/03/11 02:48:47;;;;;;;3.20;2.60;;;1.50;99.90;;;;;;5091665;28;20044;-64
2023/03/11 02:51:14;;;;;;;4.68;2.60;;;1.50;99.90;;;;;;5090572;28;20376;-66
2023/03/11 02:53:49;;;;;;;3.35;2.60;;;1.40;99.90;;;;;;5090564;28;20099;-64
2023/03/11 02:56:17;;;;;;;3.63;2.42;;;1.40;99.90;;;;;;5097635;28;20053;-64
2023/03/11 02:58:44;;;;;;;4.05;2.78;;;1.40;99.90;;;;;;5088664;28;20439;-65
2023/03/11 03:01:11;;;;;;;3.92;2.40;;;1.40;99.90;;;;;;5088364;28;20111;-64
2023/03/11 03:03:42;;;;;;;4.32;2.45;;;1.40;99.90;;;;;;5088590;28;20114;-66
2023/03/11 03:06:10;;;;;;;3.92;2.30;;;1.40;99.90;;;;;;5090093;28;20036;-65
2023/03/11 03:08:38;;;;;;;3.17;2.38;;;1.40;99.90;;;;;;5096250;28;20122;-66
2023/03/11 03:11:05;;;;;;;4.38;2.55;;;1.40;99.90;;;;;;5094094;28;20104;-65
2023/03/11 03:13:32;;;;;;;3.88;2.50;;;1.30;99.90;;;;;;5088914;28;20425;-63
2023/03/11 03:16:00;;;;;;;3.83;2.45;;;1.30;99.90;;;;;;5089019;28;20028;-62
2023/03/11 03:18:27;;;;;;;4.30;2.22;;;1.30;99.90;;;;;;5107005;28;20396;-65
2023/03/11 03:20:54;;;;;;;4.88;2.70;;;1.20;99.90;;;;;;5111626;28;20058;-64
2023/03/11 03:23:22;;;;;;;3.10;2.60;;;1.20;99.90;;;;;;5092036;28;20486;-64
2023/03/11 03:25:49;;;;;;;3.33;2.35;;;1.30;99.90;;;;;;5088776;28;20044;-64
2023/03/11 03:28:17;;;;;;;4.90;2.60;;;1.20;99.90;;;;;;5105318;28;20073;-65
2023/03/11 03:30:45;;;;;;;3.20;2.53;;;1.20;99.90;;;;;;5094148;28;20036;-65
2023/03/11 03:33:13;;;;;;;3.53;2.70;;;1.20;99.90;;;;;;5088758;28;20422;-66
2023/03/11 03:35:42;;;;;;;3.65;2.45;;;1.10;99.90;;;;;;5088136;28;20488;-66
2023/03/11 03:38:20;;;;;;;4.18;2.58;;;1.10;99.90;;;;;;5087856;28;20410;-66
2023/03/11 03:40:49;;;;;;;3.58;2.47;;;1.10;99.90;;;;;;5090492;28;20036;-65
2023/03/11 03:43:19;;;;;;;5.80;2.75;;;1.20;99.90;;;;;;5088095;28;20044;-64
2023/03/11 03:46:02;;;;;;;3.20;2.45;;;1.10;99.90;;;;;;5087337;28;20390;-64
2023/03/11 03:48:35;;;;;;;4.32;2.83;;;1.10;99.90;;;;;;5089309;28;20056;-64
2023/03/11 03:51:07;;;;;;;4.10;2.88;;;1.10;99.90;;;;;;5087604;28;20101;-64
2023/03/11 03:53:39;;;;;;;3.53;2.58;;;1.10;99.90;;;;;;5088070;28;20050;-65
2023/03/11 03:56:09;;;;;;;3.90;2.28;;;1.10;99.90;;;;;;5091431;28;20089;-64
2023/03/11 03:58:37;;;;;;;4.35;2.78;;;1.10;99.90;;;;;;5087974;28;20044;-65
2023/03/11 04:01:06;;;;;;;6.53;2.40;;;1.10;99.90;;;;;;5090456;28;20154;-65
2023/03/11 04:03:35;;;;;;;4.38;2.60;;;1.10;99.90;;;;;;5090834;28;20048;-64
2023/03/11 04:06:10;;;;;;;2.85;2.40;;;1.10;99.90;;;;;;5093061;28;20068;-64
2023/03/11 04:08:39;;;;;;;4.43;2.47;;;1.10;99.90;;;;;;5092384;28;20455;-66
2023/03/11 04:11:08;;;;;;;5.85;2.53;;;1.00;99.90;;;;;;5075678;28;20040;-66
2023/03/11 04:13:36;;;;;;;4.57;2.80;;;1.10;99.90;;;;;;5091990;28;20056;-65
2023/03/11 04:16:06;;;;;;;3.95;2.38;;;1.10;99.90;;;;;;5113074;28;20049;-64
2023/03/11 04:18:34;;;;;;;4.40;2.72;;;1.00;99.90;;;;;;5097437;28;20116;-66
2023/03/11 04:21:06;;;;;;;4.75;2.47;;;1.00;99.90;;;;;;5092072;28;20036;-66
2023/03/11 04:23:33;;;;;;;4.57;2.42;;;1.00;99.90;;;;;;5093969;28;20517;-62
2023/03/11 04:26:01;;;;;;;6.20;2.40;;;1.00;99.90;;;;;;5095023;28;20040;-64
2023/03/11 04:28:29;;;;;;;4.03;2.42;;;1.00;99.90;;;;;;5093172;28;20044;-65
2023/03/11 04:30:56;;;;;;;4.13;2.55;;;0.90;99.90;;;;;;5091304;28;20036;-64
2023/03/11 04:33:24;;;;;;;4.47;2.42;;;1.00;99.90;;;;;;5090034;28;20112;-64
2023/03/11 04:35:51;;;;;;;4.18;2.40;;;0.90;99.90;;;;;;5091115;28;20422;-64
2023/03/11 04:38:19;;;;;;;5.28;2.50;;;0.90;99.90;;;;;;5091867;28;20063;-64
2023/03/11 04:40:46;;;;;;;3.30;2.42;;;0.90;99.90;;;;;;5090861;28;20406;-65
2023/03/11 04:43:13;;;;;;;2.85;2.25;;;0.90;99.90;;;;;;5114443;28;20524;-65
2023/03/11 04:45:41;;;;;;;5.03;2.22;;;0.90;99.90;;;;;;5090611;28;20079;-66
2023/03/11 04:48:09;;;;;;;5.45;2.40;;;0.80;99.90;;;;;;5091111;28;20555;-65
2023/03/11 04:50:38;;;;;;;5.00;2.30;;;0.80;99.90;;;;;;5089638;28;20042;-66
2023/03/11 04:53:05;;;;;;;5.07;2.63;;;0.80;99.90;;;;;;5092936;28;20070;-67
2023/03/11 04:55:33;;;;;;;5.93;2.45;;;0.80;99.90;;;;;;5091268;28;20509;-68
2023/03/11 04:58:00;;;;;;;3.70;2.30;;;0.90;99.90;;;;;;5090935;28;20048;-66
2023/03/11 05:00:28;;;;;;;4.60;2.20;;;0.90;99.90;;;;;;5089508;28;20281;-67
2023/03/11 05:03:03;;;;;;;3.63;2.42;;;0.80;99.90;;;;;;5074847;28;20044;-67
2023/03/11 05:05:30;;;;;;;6.32;2.65;;;0.80;99.90;;;;;;5089493;28;20064;-66
2023/03/11 05:07:58;;;;;;;7.65;2.50;;;0.80;99.90;;;;;;5090399;28;20052;-67
2023/03/11 05:10:27;;;;;;;5.45;2.40;;;0.80;99.90;;;;;;5089650;28;20461;-66
2023/03/11 05:12:59;;;;;;;9.50;2.50;;;0.90;99.90;;;;;;5090886;28;20085;-67
2023/03/11 05:15:31;;;;;;;4.32;2.38;;;0.80;99.90;;;;;;5091430;28;20040;-65
2023/03/11 05:18:01;;;;;;;4.60;2.53;;;0.80;99.90;;;;;;5089404;28;20596;-67
2023/03/11 05:20:31;;;;;;;3.70;2.50;;;0.80;99.90;;;;;;5089796;28;20040;-64
2023/03/11 05:22:58;;;;;;;4.35;2.50;;;0.80;99.90;;;;;;5091607;28;20490;-67
2023/03/11 05:25:27;;;;;;;5.75;2.95;;;0.70;99.90;;;;;;5091381;28;20462;-67
2023/03/11 05:27:55;;;;;;;6.10;2.40;;;0.60;99.90;;;;;;5089700;28;20101;-67
2023/03/11 05:30:22;;;;;;;5.25;2.70;;;0.60;99.90;;;;;;5091051;28;20466;-67
2023/03/11 05:32:50;;;;;;;5.32;2.67;;;0.60;99.90;;;;;;5096617;28;20596;-67
2023/03/11 05:35:18;;;;;;;4.00;2.60;;;0.60;99.90;;;;;;5089927;28;20043;-67
2023/03/11 05:37:48;;;;;;;4.88;2.30;;;0.70;99.90;;;;;;5097847;28;20047;-66
2023/03/11 05:40:17;;;;;;;11.15;2.90;;;0.70;99.90;;;;;;5111973;28;20103;-66
2023/03/11 05:42:45;;;;;;;3.45;2.42;;;0.80;99.90;;;;;;5109307;28;20111;-65
2023/03/11 05:45:14;;;;;;;4.90;2.47;;;0.80;99.90;;;;;;5089916;28;20040;-65
2023/03/11 05:47:44;;;;;;;4.07;2.47;;;0.80;99.90;;;;;;5093188;28;20090;-65
2023/03/11 05:50:14;;;;;;;6.07;2.70;;;0.80;99.90;;;;;;5090101;28;20048;-65
2023/03/11 05:52:44;;;;;;;7.10;3.97;;;0.80;99.90;;;;;;5099136;28;20059;-66
2023/03/11 05:55:11;;;;;;;4.65;2.38;;;0.80;99.90;;;;;;5110657;28;20124;-66
2023/03/11 05:57:41;;;;;;;7.15;2.80;;;0.80;99.90;;;;;;5099743;28;20059;-65
2023/03/11 06:00:12;;;;;;;5.35;2.45;;;0.90;99.90;;;;;;5091120;28;20032;-67
2023/03/11 06:02:40;;;;;;;6.00;2.70;;;1.00;99.90;;;;;;5090176;28;20108;-69
2023/03/11 06:05:11;;;;;;;5.13;2.75;;;0.90;99.90;;;;;;5090425;28;20055;-67
2023/03/11 06:07:41;;;;;;;5.70;2.78;;;1.00;99.90;;;;;;5099039;28;20064;-66
2023/03/11 06:10:09;;;;;;;8.90;2.60;;;1.00;99.90;;;;;;5090763;28;20050;-67
2023/03/11 06:12:38;;;;;;;5.90;2.90;;;1.00;99.90;;;;;;5089616;28;20040;-67
2023/03/11 06:15:24;;;;;;;4.10;2.60;;;1.00;99.90;;;;;;5089328;28;20048;-66
2023/03/11 06:17:52;;;;;;;5.50;3.03;;;1.10;99.90;;;;;;5089844;28;20129;-67
2023/03/11 06:20:20;;;;;;;4.60;2.78;;;1.10;99.90;;;;;;5097963;28;20046;-67
2023/03/11 06:22:49;;;;;;;5.22;3.17;;;1.10;99.90;;;;;;5078373;28;20050;-69
2023/03/11 06:25:18;;;;;;;5.50;3.13;;;1.10;99.90;;;;;;5089586;28;20094;-65
2023/03/11 06:27:52;;;;;;;4.70;3.20;;;1.10;99.90;;;;;;5098272;28;20415;-67
2023/03/11 06:30:20;;;;;;;7.20;2.92;;;1.10;99.90;;;;;;5090730;28;20040;-67
2023/03/11 06:32:55;;;;;;;4.72;3.30;;;1.10;99.90;;;;;;5090249;28;20031;-67
2023/03/11 06:35:23;;;;;;;4.10;3.00;;;1.10;99.90;;;;;;5097461;28;20040;-66
2023/03/11 06:37:50;;;;;;;3.95;3.08;;;1.20;99.90;;;;;;5091643;28;20043;-67
2023/03/11 06:40:17;;;;;;;5.15;3.22;;;1.20;99.90;;;;;;5089356;28;20494;-66
2023/03/11 06:42:48;;;;;;;5.95;3.00;;;1.20;99.90;;;;;;5091330;28;20044;-66
2023/03/11 06:45:17;;;;;;;7.53;3.45;;;1.10;99.90;;;;;;5102647;28;20042;-68
2023/03/11 06:47:48;;;;;;;5.70;3.20;;;1.20;99.90;;;;;;5090064;28;20115;-67
2023/03/11 06:50:16;;;;;;;8.43;3.42;;;1.20;99.90;;;;;;5090312;28;20478;-66
2023/03/11 06:52:43;;;;;;;4.57;3.30;;;1.20;99.90;;;;;;5090264;28;20111;-66
2023/03/11 06:55:11;;;;;;;7.00;4.07;;;1.30;99.90;;;;;;5084200;28;20540;-67
2023/03/11 06:57:38;;;;;;;6.32;3.30;;;1.20;99.90;;;;;;5098230;28;20044;-67
2023/03/11 07:00:11;;;;;;;7.93;3.40;;;1.20;99.90;;;;;;5091695;28;20489;-67
2023/03/11 07:02:41;;;;;;;10.80;3.28;;;1.20;99.90;;;;;;5089705;28;20064;-67
2023/03/11 07:05:09;;;;;;;4.95;3.10;;;1.10;99.90;;;;;;5089832;28;20529;-68
2023/03/11 07:07:37;;;;;;;6.07;3.20;;;1.10;99.90;;;;;;5089130;28;20040;-67
2023/03/11 07:10:05;;;;;;;5.50;3.30;;;1.20;99.90;;;;;;5096176;28;20044;-67
2023/03/11 07:12:32;;;;;;;7.97;3.53;;;1.20;99.90;;;;;;5089591;28;20490;-67
2023/03/11 07:15:00;;;;;;;7.70;3.35;;;1.40;99.90;;;;;;5090946;28;20048;-63
2023/03/11 07:17:29;;;;;;;6.18;3.35;;;1.40;99.90;;;;;;5088912;28;20028;-66
2023/03/11 07:19:56;;;;;;;7.10;3.28;;;1.50;99.90;;;;;;5097482;28;20399;-67
2023/03/11 07:22:24;;;;;;;4.60;3.35;;;1.60;99.90;;;;;;5094841;28;20411;-66
2023/03/11 07:24:51;;;;;;;8.13;3.30;;;1.70;99.90;;;;;;5090500;28;20043;-67
2023/03/11 07:27:18;;;;;;;9.98;3.28;;;1.80;99.90;;;;;;5094486;28;20060;-66
2023/03/11 07:29:46;;;;;;;4.78;3.20;;;1.90;99.90;;;;;;5089504;28;20151;-65
2023/03/11 07:32:13;;;;;;;5.05;3.30;;;1.80;99.90;;;;;;5099641;28;20105;-67
2023/03/11 07:34:41;;;;;;;7.07;3.45;;;1.90;99.90;;;;;;5109745;28;20134;-66
2023/03/11 07:37:08;;;;;;;5.05;3.03;;;2.00;99.90;;;;;;5096430;28;20085;-66
2023/03/11 07:39:36;;;;;;;5.82;3.00;;;2.20;99.90;;;;;;5103318;28;20885;-67
2023/03/11 07:42:04;;;;;;;9.20;3.33;;;2.10;99.90;;;;;;5089726;28;20177;-66
2023/03/11 07:44:35;;;;;;;6.53;3.90;;;2.10;99.90;;;;;;5089128;28;20393;-67
2023/03/11 07:47:04;;;;;;;5.35;3.25;;;2.00;99.90;;;;;;5093673;28;20066;-65
2023/03/11 07:49:32;;;;;;;5.18;3.50;;;1.90;99.90;;;;;;5091620;28;20044;-67
2023/03/11 07:52:00;;;;;;;6.95;3.58;;;1.80;99.90;;;;;;5090908;28;20044;-66
2023/03/11 07:54:27;;;;;;;6.40;3.80;;;1.80;99.90;;;;;;5088880;28;20101;-67
2023/03/11 07:56:54;;;;;;;7.93;3.60;;;1.90;99.90;;;;;;5100754;28;20093;-65
2023/03/11 07:59:22;;;;;;;6.40;3.63;;;1.90;99.90;;;;;;5091035;28;20401;-66
2023/03/11 08:01:49;;;;;;;6.20;3.45;;;1.90;99.90;;;;;;5089263;28;20050;-67
2023/03/11 08:04:16;;;;;;;5.85;3.17;;;2.10;99.90;;;;;;5090971;28;20071;-67
2023/03/11 08:06:45;;;;;;;4.78;3.17;;;2.00;99.90;;;;;;5090553;28;20058;-67
2023/03/11 08:09:13;;;;;;;5.75;3.42;;;2.10;99.90;;;;;;5090068;28;20508;-66
2023/03/11 08:11:40;;;;;;;6.97;3.67;;;2.10;99.90;;;;;;5089053;28;20044;-66
2023/03/11 08:14:08;;;;;;;7.22;3.10;;;2.30;99.90;;;;;;5090521;28;20052;-68
2023/03/11 08:16:38;;;;;;;6.82;3.70;;;2.50;99.90;;;;;;5090262;28;20047;-67
2023/03/11 08:19:05;;;;;;;4.45;3.30;;;2.50;99.90;;;;;;5090441;28;20035;-68
2023/03/11 08:21:32;;;;;;;8.65;3.85;;;2.30;99.90;;;;;;5093167;28;20047;-66
2023/03/11 08:24:01;;;;;;;5.30;3.42;;;2.30;99.90;;;;;;5100718;28;20561;-67
2023/03/11 08:26:30;;;;;;;4.95;3.40;;;2.30;99.90;;;;;;5099296;28;20510;-64
2023/03/11 08:28:58;;;;;;;8.38;3.83;;;2.30;99.90;;;;;;5090669;28;20040;-67
2023/03/11 08:31:29;;;;;;;5.57;3.20;;;2.40;99.90;;;;;;5090232;28;20692;-66
2023/03/11 08:33:59;;;;;;;8.95;3.40;;;2.40;99.90;;;;;;5089965;28;20048;-66
2023/03/11 08:36:27;;;;;;;6.47;3.10;;;2.50;99.90;;;;;;5097556;28;20036;-67
2023/03/11 08:38:55;;;;;;;7.55;3.00;;;2.50;99.90;;;;;;5099711;28;20071;-67
2023/03/11 08:41:22;;;;;;;5.15;3.20;;;2.60;99.90;;;;;;5098692;28;20063;-68
2023/03/11 08:43:51;;;;;;;5.32;3.22;;;2.70;99.90;;;;;;5095292;28;20058;-66
2023/03/11 08:46:37;;;;;;;4.38;3.08;;;2.60;99.90;;;;;;5092388;28;20040;-66
2023/03/11 08:49:05;;;;;;;9.25;3.47;;;2.90;99.90;;;;;;5100514;28;20327;-68
2023/03/11 08:51:34;;;;;;;5.53;3.88;;;2.90;99.90;;;;;;5097218;28;20051;-65
2023/03/11 08:54:02;;;;;;;8.00;3.17;;;3.00;99.90;;;;;;5093437;28;20051;-64
2023/03/11 08:56:29;;;;;;;8.05;3.30;;;3.00;99.90;;;;;;5106457;28;20033;-65
2023/03/11 08:58:57;;;;;;;5.13;3.10;;;3.20;99.90;;;;;;5105182;28;20043;-67
2023/03/11 09:01:24;;;;;;;4.63;3.30;;;3.20;99.90;;;;;;5092724;28;20044;-67
2023/03/11 09:03:51;;;;;;;6.35;3.50;;;3.30;99.90;;;;;;5091916;28;20189;-67
2023/03/11 09:06:19;;;;;;;4.95;3.45;;;3.30;99.90;;;;;;5091271;28;20040;-66
2023/03/11 09:08:47;;;;;;;3.92;2.78;;;3.50;99.90;;;;;;5093134;28;20521;-66
2023/03/11 09:11:16;;;;;;;6.63;3.50;;;3.40;99.90;;;;;;5099236;28;20071;-65
2023/03/11 09:13:44;;;;;;;6.60;3.00;;;3.50;99.90;;;;;;5103066;28;20421;-66
2023/03/11 09:16:16;;;;;;;8.25;3.40;;;3.50;99.90;;;;;;5090789;28;20040;-65
2023/03/11 09:18:45;;;;;;;3.70;2.80;;;3.40;99.90;;;;;;5091826;28;20036;-66
2023/03/11 09:21:12;;;;;;;4.28;2.80;;;3.60;99.90;;;;;;5091489;28;20051;-65
2023/03/11 09:23:40;;;;;;;3.97;2.80;;;3.80;99.90;;;;;;5092199;28;20048;-66
2023/03/11 09:26:11;;;;;;;6.05;2.90;;;4.00;99.90;;;;;;5090914;28;20044;-66
2023/03/11 09:28:41;;;;;;;5.25;3.00;;;3.80;99.90;;;;;;5090113;28;20490;-66
2023/03/11 09:31:08;;;;;;;5.20;2.80;;;3.80;99.90;;;;;;5089759;28;20118;-65
2023/03/11 09:33:40;;;;;;;6.55;3.33;;;3.60;99.90;;;;;;5090634;28;20048;-65
2023/03/11 09:36:15;;;;;;;6.15;2.92;;;3.30;99.90;;;;;;5087579;28;20611;-66
2023/03/11 09:38:43;;;;;;;4.85;3.22;;;3.30;99.90;;;;;;5089524;28;20466;-65
2023/03/11 09:41:33;;;;;;;3.97;3.20;;;3.10;99.90;;;;;;5090166;28;20108;-66
2023/03/11 09:44:14;;;;;;;5.85;3.30;;;3.10;99.90;;;;;;5092944;28;20051;-66
2023/03/11 09:46:41;;;;;;;4.57;2.95;;;2.90;99.90;;;;;;5091728;28;20043;-66
2023/03/11 09:49:59;;;;;;;4.57;2.88;;;3.10;99.90;;;;;;5091307;28;20058;-65
2023/03/11 09:52:39;;;;;;;4.07;3.00;;;3.60;99.90;;;;;;5056713;28;20056;-66
2023/03/11 09:55:34;;;;;;;4.90;3.35;;;3.70;99.90;;;;;;5090973;28;20123;-67
2023/03/11 09:58:09;;;;;;;4.35;2.92;;;3.70;99.90;;;;;;5090633;28;20043;-67
2023/03/11 10:00:36;;;;;;;4.32;2.92;;;3.60;99.90;;;;;;5090887;28;20043;-67
2023/03/11 10:03:11;;;;;;;3.70;2.50;;;3.40;99.90;;;;;;5091498;28;20043;-67
2023/03/11 10:05:42;;;;;;;3.53;2.60;;;3.20;99.90;;;;;;5090966;28;20067;-66
2023/03/11 10:08:39;;;;;;;3.63;2.67;;;2.70;99.90;;;;;;5091556;28;20449;-66
2023/03/11 10:11:32;;;;;;;8.02;3.50;;;2.50;99.90;;;;;;5025285;28;20045;-66
2023/03/11 10:14:19;;;;;;;5.60;3.13;;;2.30;99.90;;;;;;5027964;28;20061;-66
2023/03/11 10:16:58;;;;;;;7.43;3.47;;;1.90;99.90;;;;;;5008754;28;20520;-67
2023/03/11 10:19:28;;;;;;;5.45;3.45;;;1.90;99.90;;;;;;5008135;28;20100;-65
2023/03/11 10:22:19;;;;;;;6.43;3.42;;;1.90;99.90;;;;;;5019242;28;20053;-66
2023/03/11 10:24:56;;;;;;;6.40;3.50;;;2.20;99.90;;;;;;5044562;28;20051;-65
2023/03/11 10:27:31;;;;;;;5.50;3.38;;;2.50;99.90;;;;;;5029668;28;20046;-65
2023/03/11 10:30:20;;;;;;;6.30;3.50;;;2.90;99.90;;;;;;5027747;28;20381;-65
2023/03/11 10:32:59;;;;;;;8.30;3.53;;;3.30;99.90;;;;;;5012416;28;20045;-65
2023/03/11 10:35:38;;;;;;;5.75;3.47;;;3.60;99.90;;;;;;5026379;28;20192;-66
2023/03/11 10:38:18;;;;;;;6.00;3.95;;;4.20;99.90;;;;;;5000513;28;20116;-66
2023/03/11 10:40:49;;;;;;;6.65;3.60;;;4.20;99.90;;;;;;5027988;28;20049;-66
2023/03/11 10:43:38;;;;;;;6.57;3.70;;;4.10;99.90;;;;;;5025852;28;20701;-65
2023/03/11 10:46:17;;;;;;;6.65;3.95;;;3.50;99.90;;;;;;5023900;28;20096;-66
2023/03/11 10:48:45;;;;;;;6.38;3.97;;;3.40;99.90;;;;;;5083459;28;20407;-66
2023/03/11 10:51:21;;;;;;;7.75;3.95;;;3.50;99.90;;;;;;5101523;28;20086;-66
2023/03/11 10:53:54;;;;;;;6.70;3.83;;;3.90;99.90;;;;;;5096650;28;20044;-63
2023/03/11 10:56:25;;;;;;;7.25;5.25;;;4.10;99.90;;;;;;5090960;28;20059;-65
2023/03/11 10:58:52;;;;;;;5.68;3.67;;;4.20;99.90;;;;;;5108830;28;20040;-66
2023/03/11 11:01:20;;;;;;;5.88;3.50;;;4.40;99.90;;;;;;5094692;28;20390;-66
2023/03/11 11:03:50;;;;;;;5.32;3.50;;;4.30;99.90;;;;;;5103375;28;20040;-65
2023/03/11 11:06:34;;;;;;;9.68;3.55;;;4.20;99.90;;;;;;5096519;28;20127;-66
2023/03/11 11:09:15;;;;;;;6.40;3.83;;;4.50;99.90;;;;;;5109135;28;20058;-65
2023/03/11 11:12:13;;;;;;;4.93;3.20;;;5.20;99.90;;;;;;5102530;28;20104;-65
2023/03/11 11:14:49;;;;;;;4.30;3.13;;;5.70;99.90;;;;;;5105140;28;20301;-68
2023/03/11 11:17:21;;;;;;;3.70;2.90;;;5.70;99.90;;;;;;5090502;28;20055;-67
2023/03/11 11:19:50;;;;;;;4.63;3.22;;;5.60;99.90;;;;;;5089577;28;20106;-68
2023/03/11 11:22:20;;;;;;;5.15;3.38;;;5.60;99.90;;;;;;5090017;28;20494;-65
2023/03/11 11:24:52;;;;;;;7.68;3.75;;;5.50;99.90;;;;;;5089931;28;20435;-66
2023/03/11 11:27:21;;;;;;;5.75;3.33;;;5.30;99.90;;;;;;5097127;28;20040;-66
2023/03/11 11:30:12;;;;;;;4.95;3.20;;;4.90;99.90;;;;;;5096217;28;20410;-66
2023/03/11 11:32:41;;;;;;;3.92;3.17;;;4.60;99.90;;;;;;5090547;28;20036;-66
2023/03/11 11:35:13;;;;;;;5.95;3.80;;;4.60;99.90;;;;;;5089540;28;20117;-66
2023/03/11 11:37:53;;;;;;;5.90;3.10;;;4.50;99.90;;;;;;5089026;28;20067;-66
2023/03/11 11:40:31;;;;;;;5.75;4.15;;;4.20;99.90;;;;;;5090365;28;20101;-66
2023/03/11 11:43:10;;;;;;;9.05;4.05;;;4.40;99.90;;;;;;5088781;28;20044;-65
2023/03/11 11:45:51;;;;;;;6.40;3.65;;;4.50;99.90;;;;;;5088571;28;20052;-66
2023/03/11 11:48:25;;;;;;;6.70;3.75;;;4.80;99.90;;;;;;5088320;28;20044;-66
2023/03/11 11:51:00;;;;;;;4.72;3.63;;;5.10;99.90;;;;;;5089671;28;20047;-65
2023/03/11 11:53:39;;;;;;;4.80;3.47;;;5.20;99.90;;;;;;5087854;28;20092;-66
2023/03/11 11:56:07;;;;;;;3.95;3.05;;;5.30;99.90;;;;;;5089901;28;20052;-65
2023/03/11 11:58:34;;;;;;;5.82;3.55;;;5.20;99.90;;;;;;5088523;28;20491;-66
2023/03/11 12:01:25;;;;;;;4.78;3.30;;;5.60;99.90;;;;;;5096556;28;20071;-67
2023/03/11 12:03:58;;;;;;;5.18;3.45;;;6.10;99.90;;;;;;5095160;28;20511;-66
2023/03/11 12:06:38;;;;;;;3.97;3.50;;;7.00;99.90;;;;;;5101329;28;20028;-67
2023/03/11 12:09:23;;;;;;;4.53;3.33;;;7.10;99.90;;;;;;5103031;28;20048;-65
2023/03/11 12:12:02;;;;;;;3.78;3.20;;;6.70;99.90;;;;;;5089883;28;20048;-67
2023/03/11 12:14:56;;;;;;;5.35;3.63;;;6.10;99.90;;;;;;5088631;28;20526;-66
2023/03/11 12:17:26;;;;;;;4.40;3.50;;;5.70;99.90;;;;;;5091090;28;20919;-66
2023/03/11 12:20:07;;;;;;;5.38;3.40;;;5.40;99.90;;;;;;5092438;28;20469;-67
2023/03/11 12:23:05;;;;;;;6.05;3.83;;;5.30;99.90;;;;;;5093946;28;20044;-67
2023/03/11 12:25:44;;;;;;;4.38;3.40;;;5.40;99.90;;;;;;5092685;28;20534;-65
2023/03/11 12:28:21;;;;;;;5.03;3.60;;;5.00;99.90;;;;;;5109217;28;20046;-67
2023/03/11 12:30:57;;;;;;;6.22;3.92;;;4.70;99.90;;;;;;5112872;28;20417;-66
2023/03/11 12:33:54;;;;;;;5.60;4.05;;;4.50;99.90;;;;;;5092276;28;20109;-65
2023/03/11 12:36:24;;;;;;;7.35;4.20;;;4.40;99.90;;;;;;5091836;28;20525;-67
2023/03/11 12:38:53;;;;;;;4.78;3.55;;;4.00;99.90;;;;;;5104122;28;20050;-66
2023/03/11 12:41:28;;;;;;;6.20;3.70;;;4.00;99.90;;;;;;5108645;28;20048;-66
2023/03/11 12:44:01;;;;;;;5.68;3.70;;;3.90;99.90;;;;;;5093662;28;20051;-68
2023/03/11 12:47:07;;;;;;;5.32;3.80;;;3.80;99.90;;;;;;5092971;28;20417;-68
2023/03/11 12:49:45;;;;;;;7.43;4.90;;;3.70;99.90;;;;;;5032923;28;20080;-66
2023/03/11 12:52:12;;;;;;;5.50;3.90;;;3.80;99.90;;;;;;5060721;28;20044;-67
2023/03/11 12:54:46;;;;;;;7.80;4.63;;;4.10;99.90;;;;;;5071780;28;20052;-67
2023/03/11 12:57:19;;;;;;;8.63;4.75;;;4.50;99.90;;;;;;5069489;28;20047;-67
2023/03/11 13:00:11;;;;;;;4.68;3.53;;;4.40;99.90;;;;;;5070949;28;20107;-66
2023/03/11 13:02:41;;;;;;;;;;;4.40;99.90;;;;;;5068442;28;20126;-66
2023/03/11 13:05:22;;;;;;;5.63;3.60;;;4.50;99.90;;;;;;5041486;28;20066;-67
2023/03/11 13:08:08;;;;;;;4.20;3.58;;;4.50;99.90;;;;;;5062267;28;20443;-66
2023/03/11 13:10:40;;;;;;;5.00;3.60;;;4.30;99.90;;;;;;5064806;28;20128;-67
2023/03/11 13:13:32;;;;;;;4.55;3.72;;;4.10;99.90;;;;;;5067618;28;20048;-67
2023/03/11 13:16:14;;;;;;;5.10;3.63;;;3.80;99.90;;;;;;5053131;28;20041;-66
2023/03/11 13:18:46;;;;;;;4.65;3.53;;;3.80;99.90;;;;;;5069617;28;20047;-66
2023/03/11 13:21:25;;;;;;;5.53;3.75;;;3.60;99.90;;;;;;5092038;28;20591;-67